Time;durP1;ratioP1;P1;durP2;ratioP2;P2;SDS_P1;SDS_P2;PMS_P1;PMS_P2;Temp;Humidity;BMP_temperature;BMP_pressure;BME280_temperature;BME280_humidity;BME280_pressure;Samples;Min_cycle;Max_cycle;Signal;HPM_P1;HPM_P2
2021/12/06 00:01:31;;;;;;;33.40;18.17;;;5.30;84.00;;;;;;5021057;28;20683;-82
2021/12/06 00:04:12;;;;;;;35.22;18.40;;;5.10;84.30;;;;;;5017852;28;20229;-82
2021/12/06 00:06:42;;;;;;;36.30;18.50;;;5.00;84.60;;;;;;5029805;28;20637;-82
2021/12/06 00:09:11;;;;;;;36.47;19.77;;;5.00;85.00;;;;;;5018521;28;20171;-82
2021/12/06 00:11:37;;;;;;;33.75;17.63;;;5.00;85.20;;;;;;5021233;28;20177;-82
2021/12/06 00:14:04;;;;;;;34.27;17.40;;;5.20;85.40;;;;;;5030388;28;20221;-83
2021/12/06 00:16:30;;;;;;;36.92;18.20;;;5.10;85.50;;;;;;5018744;28;20513;-82
2021/12/06 00:18:56;;;;;;;32.78;19.08;;;5.20;85.70;;;;;;5018274;28;20604;-82
2021/12/06 00:21:23;;;;;;;39.33;18.43;;;5.20;85.80;;;;;;5026490;28;20233;-83
2021/12/06 00:23:49;;;;;;;37.88;17.80;;;5.30;85.90;;;;;;5018794;28;20209;-82
2021/12/06 00:26:15;;;;;;;37.33;19.27;;;5.40;85.90;;;;;;5019575;28;20187;-82
2021/12/06 00:28:44;;;;;;;35.53;19.40;;;5.60;85.80;;;;;;5026509;28;20202;-82
2021/12/06 00:31:10;;;;;;;44.50;20.48;;;5.80;85.30;;;;;;5019248;28;20449;-82
2021/12/06 00:33:36;;;;;;;34.65;18.70;;;5.80;85.10;;;;;;5019075;28;20201;-81
2021/12/06 00:36:06;;;;;;;35.78;20.05;;;5.70;85.00;;;;;;5025767;28;20178;-82
2021/12/06 00:38:34;;;;;;;32.47;17.77;;;5.80;84.60;;;;;;5017995;28;20246;-82
2021/12/06 00:41:01;;;;;;;38.00;19.17;;;5.80;84.20;;;;;;5017555;28;20225;-82
2021/12/06 00:43:27;;;;;;;41.33;18.30;;;5.70;84.00;;;;;;5018668;28;20202;-81
2021/12/06 00:45:53;;;;;;;33.40;17.33;;;5.50;84.20;;;;;;5013200;28;20228;-82
2021/12/06 00:48:18;;;;;;;35.90;18.90;;;5.40;84.50;;;;;;5029001;28;20267;-83
2021/12/06 00:50:44;;;;;;;29.90;16.97;;;5.40;84.70;;;;;;5018196;28;20664;-82
2021/12/06 00:53:11;;;;;;;29.15;16.08;;;5.30;84.90;;;;;;5017952;28;20261;-82
2021/12/06 00:55:38;;;;;;;44.65;18.48;;;5.20;85.00;;;;;;5026005;28;20205;-81
2021/12/06 00:58:04;;;;;;;35.75;19.17;;;5.20;85.20;;;;;;5017280;28;20185;-82
2021/12/06 01:00:35;;;;;;;36.97;19.20;;;5.20;85.40;;;;;;5024887;28;20213;-82
2021/12/06 01:03:04;;;;;;;33.25;18.05;;;5.10;85.60;;;;;;5024328;28;20226;-83
2021/12/06 01:05:30;;;;;;;36.83;18.15;;;5.10;85.80;;;;;;5032236;28;20261;-82
2021/12/06 01:07:56;;;;;;;31.53;19.10;;;5.10;86.00;;;;;;5023157;28;20212;-82
2021/12/06 01:10:25;;;;;;;31.07;18.83;;;5.10;86.10;;;;;;5031410;28;20426;-81
2021/12/06 01:12:51;;;;;;;42.15;21.50;;;5.00;86.10;;;;;;5016615;28;20331;-82
2021/12/06 01:15:17;;;;;;;38.60;21.42;;;5.00;86.40;;;;;;5016132;28;20676;-82
2021/12/06 01:17:44;;;;;;;36.53;18.75;;;5.10;86.60;;;;;;5017720;28;20183;-82
2021/12/06 01:20:12;;;;;;;44.40;21.35;;;5.10;86.70;;;;;;5025409;28;20198;-82
2021/12/06 01:22:46;;;;;;;42.55;20.55;;;5.00;86.70;;;;;;5018210;28;20178;-82
2021/12/06 01:25:26;;;;;;;39.40;19.67;;;5.00;86.80;;;;;;5024063;28;20580;-82
2021/12/06 01:41:33;;;;;;;41.92;19.10;;;5.80;85.60;;;;;;5029593;28;20221;-82
2021/12/06 01:44:15;;;;;;;38.88;19.95;;;5.90;85.20;;;;;;5028795;28;20627;-82
2021/12/06 01:46:51;;;;;;;34.28;18.60;;;6.00;84.80;;;;;;5037805;28;20177;-82
2021/12/06 01:49:18;;;;;;;35.60;19.38;;;5.90;84.40;;;;;;5013873;28;20215;-83
2021/12/06 01:51:45;;;;;;;36.35;19.83;;;5.80;84.30;;;;;;5022078;28;20186;-82
2021/12/06 01:54:11;;;;;;;35.25;19.70;;;5.90;85.10;;;;;;5019607;28;20210;-82
2021/12/06 01:56:37;;;;;;;39.47;20.90;;;6.20;84.10;;;;;;5018776;28;20237;-82
2021/12/06 01:59:04;;;;;;;45.53;21.95;;;6.00;83.60;;;;;;5018625;28;20425;-81
2021/12/06 02:01:30;;;;;;;39.20;19.30;;;5.90;83.70;;;;;;5020859;28;20589;-82
2021/12/06 02:03:56;;;;;;;37.07;19.23;;;6.10;83.70;;;;;;5033913;28;20230;-82
2021/12/06 02:06:21;;;;;;;37.70;21.80;;;6.20;83.40;;;;;;5019774;28;21003;-82
2021/12/06 02:08:47;;;;;;;38.00;20.70;;;6.10;83.10;;;;;;5034527;28;20417;-82
2021/12/06 02:11:13;;;;;;;41.40;20.00;;;6.20;83.10;;;;;;5027839;28;20201;-82
2021/12/06 02:13:50;;;;;;;36.58;20.70;;;6.30;83.00;;;;;;5031333;28;20186;-84
2021/12/06 02:16:20;;;;;;;40.28;19.75;;;6.40;82.60;;;;;;5033611;28;20200;-83
2021/12/06 02:18:50;;;;;;;45.30;21.48;;;6.60;81.80;;;;;;5032985;28;20238;-82
2021/12/06 02:21:19;;;;;;;40.25;21.83;;;6.30;81.30;;;;;;5024848;28;20190;-83
2021/12/06 02:23:47;;;;;;;39.33;20.50;;;6.10;81.00;;;;;;5020406;28;20305;-82
2021/12/06 02:26:14;;;;;;;42.47;22.23;;;6.00;81.50;;;;;;5035130;28;20179;-82
2021/12/06 02:28:40;;;;;;;38.45;20.10;;;5.90;82.40;;;;;;5015194;28;20178;-83
2021/12/06 02:31:06;;;;;;;50.05;22.10;;;6.00;82.00;;;;;;5024711;28;20186;-82
2021/12/06 02:33:32;;;;;;;46.38;22.90;;;6.00;81.90;;;;;;5023819;28;20649;-82
2021/12/06 02:35:58;;;;;;;42.50;21.60;;;6.00;82.00;;;;;;5025493;28;20221;-82
2021/12/06 02:38:24;;;;;;;39.65;20.92;;;6.10;82.10;;;;;;5029945;28;20206;-82
2021/12/06 02:40:50;;;;;;;40.93;20.17;;;6.00;81.90;;;;;;5020514;28;20187;-82
2021/12/06 02:43:16;;;;;;;50.17;23.50;;;6.10;82.00;;;;;;5032725;28;20281;-83
2021/12/06 02:45:42;;;;;;;46.10;23.03;;;6.20;81.70;;;;;;5031341;28;20225;-82
2021/12/06 02:48:10;;;;;;;48.80;23.63;;;6.00;81.40;;;;;;5028704;28;20476;-82
2021/12/06 02:50:41;;;;;;;45.67;26.38;;;6.10;81.50;;;;;;5025146;28;20177;-82
2021/12/06 02:53:08;;;;;;;50.33;24.05;;;6.30;81.40;;;;;;5022086;28;20274;-82
2021/12/06 02:55:36;;;;;;;43.67;21.30;;;6.00;81.10;;;;;;5020465;28;20215;-82
2021/12/06 02:58:21;;;;;;;45.55;23.63;;;5.90;81.30;;;;;;5018593;28;20193;-81
2021/12/06 03:00:54;;;;;;;45.53;22.75;;;5.80;81.40;;;;;;5020691;28;20254;-82
2021/12/06 03:03:20;;;;;;;46.42;21.67;;;5.90;81.60;;;;;;5020044;28;20297;-81
2021/12/06 03:05:51;;;;;;;48.58;24.75;;;6.10;81.70;;;;;;5025140;28;20202;-82
2021/12/06 03:08:36;;;;;;;50.53;22.80;;;6.20;81.40;;;;;;5020789;28;20261;-82
2021/12/06 03:11:02;;;;;;;49.65;22.70;;;6.20;81.10;;;;;;5020201;28;20222;-82
2021/12/06 03:13:28;;;;;;;60.42;25.67;;;6.10;80.80;;;;;;5025979;28;20186;-81
2021/12/06 03:15:53;;;;;;;52.13;22.47;;;6.20;80.90;;;;;;5019753;28;20193;-81
2021/12/06 03:18:19;;;;;;;46.83;23.80;;;5.80;80.80;;;;;;5019274;28;20597;-81
2021/12/06 03:20:45;;;;;;;51.60;22.93;;;5.80;81.30;;;;;;5025819;28;20198;-82
2021/12/06 03:23:10;;;;;;;47.10;21.67;;;5.90;81.60;;;;;;5020199;28;20206;-82
2021/12/06 03:25:36;;;;;;;59.80;24.90;;;6.00;81.60;;;;;;5021283;28;20313;-81
2021/12/06 03:28:03;;;;;;;55.53;23.93;;;6.10;81.60;;;;;;5028556;28;20188;-82
2021/12/06 03:30:29;;;;;;;50.42;22.85;;;6.10;81.20;;;;;;5030289;28;20421;-82
2021/12/06 03:32:54;;;;;;;52.17;22.45;;;6.10;81.10;;;;;;5034877;28;20217;-83
2021/12/06 03:35:20;;;;;;;55.93;24.10;;;6.20;80.90;;;;;;5033396;28;20210;-82
2021/12/06 03:37:46;;;;;;;52.53;22.50;;;6.40;80.80;;;;;;5028716;28;20183;-82
2021/12/06 03:40:12;;;;;;;52.45;23.77;;;6.40;80.50;;;;;;5020686;28;20417;-82
2021/12/06 03:42:38;;;;;;;54.57;24.53;;;6.00;80.00;;;;;;5029491;28;20192;-82
2021/12/06 03:45:09;;;;;;;59.65;23.13;;;5.90;80.00;;;;;;5018728;28;20465;-82
2021/12/06 03:47:35;;;;;;;53.28;23.58;;;6.00;80.30;;;;;;5025558;28;20224;-82
2021/12/06 03:50:03;;;;;;;47.15;22.80;;;5.90;80.50;;;;;;5019118;28;20178;-81
2021/12/06 03:52:29;;;;;;;46.78;21.75;;;5.90;80.50;;;;;;5018687;28;20209;-82
2021/12/06 03:54:55;;;;;;;48.30;23.05;;;6.00;81.30;;;;;;5028910;28;20281;-82
2021/12/06 03:57:21;;;;;;;42.97;21.25;;;6.00;80.70;;;;;;5023338;28;20270;-82
2021/12/06 03:59:49;;;;;;;62.00;26.70;;;5.90;80.60;;;;;;5017340;28;20181;-82
2021/12/06 04:02:15;;;;;;;54.28;24.20;;;6.10;80.50;;;;;;5026976;28;20269;-82
2021/12/06 04:04:41;;;;;;;46.33;21.67;;;6.10;80.40;;;;;;5017823;28;20206;-82
2021/12/06 04:07:08;;;;;;;48.17;22.30;;;6.10;80.10;;;;;;5017576;28;20578;-82
2021/12/06 04:09:34;;;;;;;50.00;21.95;;;6.00;80.00;;;;;;5016935;28;20174;-81
2021/12/06 04:11:59;;;;;;;52.20;23.35;;;5.70;80.60;;;;;;5026417;28;20183;-82
2021/12/06 04:14:25;;;;;;;59.43;24.77;;;5.40;81.50;;;;;;5017960;28;20735;-82
2021/12/06 04:16:51;;;;;;;61.17;24.50;;;5.30;82.40;;;;;;5026696;28;20176;-82
2021/12/06 04:19:17;;;;;;;56.03;25.80;;;5.30;82.90;;;;;;5018860;28;20869;-82
2021/12/06 04:21:45;;;;;;;51.42;22.95;;;5.40;83.20;;;;;;5018563;28;20441;-82
2021/12/06 04:24:12;;;;;;;48.85;23.90;;;5.50;83.40;;;;;;5018126;28;20206;-82
2021/12/06 04:26:39;;;;;;;61.03;26.20;;;5.40;83.30;;;;;;5017507;28;20312;-82
2021/12/06 04:29:05;;;;;;;57.42;26.17;;;5.20;83.60;;;;;;5021636;28;20178;-82
2021/12/06 04:31:37;;;;;;;63.33;24.35;;;5.00;84.10;;;;;;5027957;28;20174;-82
2021/12/06 04:34:03;;;;;;;59.33;24.65;;;4.80;84.70;;;;;;5017499;28;20198;-81
2021/12/06 04:36:29;;;;;;;61.20;27.65;;;4.90;85.10;;;;;;5019108;28;20197;-82
2021/12/06 04:38:54;;;;;;;57.03;26.77;;;5.30;85.20;;;;;;5019525;28;20213;-82
2021/12/06 04:41:20;;;;;;;56.40;24.57;;;5.50;84.20;;;;;;5022407;28;20182;-82
2021/12/06 04:43:47;;;;;;;63.28;27.48;;;5.60;83.60;;;;;;5029970;28;20221;-82
2021/12/06 04:46:13;;;;;;;64.03;26.98;;;5.70;83.30;;;;;;5030424;28;20179;-82
2021/12/06 04:48:39;;;;;;;75.30;27.33;;;5.80;82.90;;;;;;5025515;28;20258;-82
2021/12/06 04:51:06;;;;;;;62.47;28.42;;;5.80;82.30;;;;;;5032743;28;20178;-82
2021/12/06 04:53:36;;;;;;;60.45;26.50;;;5.70;82.00;;;;;;5016570;28;20183;-82
2021/12/06 04:56:40;;;;;;;57.53;24.60;;;5.60;82.10;;;;;;5027417;28;20187;-82
2021/12/06 04:59:25;;;;;;;53.88;24.80;;;5.50;82.40;;;;;;5017865;28;20680;-82
2021/12/06 05:01:54;;;;;;;68.35;28.00;;;5.60;82.30;;;;;;5016529;28;20206;-82
2021/12/06 05:04:24;;;;;;;60.60;25.65;;;5.60;82.30;;;;;;5020353;28;20209;-81
2021/12/06 05:06:55;;;;;;;60.92;28.40;;;5.50;82.50;;;;;;5020164;28;20190;-81
2021/12/06 05:09:26;;;;;;;61.03;26.00;;;5.80;82.30;;;;;;5026863;28;20174;-81
2021/12/06 05:11:52;;;;;;;65.65;26.27;;;5.80;81.90;;;;;;5022768;28;20492;-81
2021/12/06 05:14:19;;;;;;;71.88;28.65;;;5.90;81.80;;;;;;5019579;28;20194;-82
2021/12/06 05:16:45;;;;;;;66.05;27.85;;;5.90;81.50;;;;;;5024713;28;20272;-81
2021/12/06 05:19:11;;;;;;;65.43;27.60;;;5.90;81.30;;;;;;5017719;28;20210;-82
2021/12/06 05:21:37;;;;;;;69.80;27.53;;;5.80;81.20;;;;;;5021850;28;20193;-81
2021/12/06 05:24:04;;;;;;;77.13;30.83;;;5.80;81.30;;;;;;5028798;28;20209;-81
2021/12/06 05:26:30;;;;;;;75.38;29.88;;;5.60;81.40;;;;;;5028079;28;20246;-82
2021/12/06 05:29:00;;;;;;;74.85;29.85;;;5.60;81.90;;;;;;5030973;28;20183;-81
2021/12/06 05:31:26;;;;;;;76.95;28.95;;;5.70;82.00;;;;;;5029961;28;20186;-82
2021/12/06 05:33:58;;;;;;;74.68;29.15;;;5.60;81.50;;;;;;5030040;28;20245;-82
2021/12/06 05:36:24;;;;;;;66.18;29.23;;;5.40;81.70;;;;;;5045179;28;20242;-82
2021/12/06 05:38:52;;;;;;;67.47;28.83;;;5.50;82.10;;;;;;5038470;28;20216;-82
2021/12/06 05:41:18;;;;;;;68.47;30.25;;;5.40;82.30;;;;;;5023881;28;20438;-82
2021/12/06 05:43:44;;;;;;;82.07;28.73;;;5.50;82.70;;;;;;5020726;28;20570;-81
2021/12/06 05:46:09;;;;;;;62.23;26.90;;;5.50;82.80;;;;;;5024917;28;20428;-81
2021/12/06 05:48:35;;;;;;;69.43;25.50;;;5.30;83.10;;;;;;5017826;28;20456;-81
2021/12/06 05:51:02;;;;;;;63.10;25.25;;;5.40;83.20;;;;;;5021677;28;20451;-81
2021/12/06 05:53:27;;;;;;;68.07;26.95;;;5.10;82.90;;;;;;5030972;28;20178;-82
2021/12/06 05:55:53;;;;;;;67.83;27.50;;;5.00;83.20;;;;;;5028278;28;20642;-81
2021/12/06 05:58:23;;;;;;;67.17;26.07;;;5.10;83.60;;;;;;5031069;28;20185;-82
2021/12/06 06:00:49;;;;;;;73.60;26.88;;;5.20;83.80;;;;;;5021026;28;20461;-81
2021/12/06 06:03:15;;;;;;;69.15;28.13;;;5.00;84.10;;;;;;5019052;28;20225;-81
2021/12/06 06:05:42;;;;;;;97.45;30.85;;;5.10;84.60;;;;;;5019190;28;20219;-82
2021/12/06 06:08:08;;;;;;;74.13;27.00;;;5.40;84.50;;;;;;5019720;28;20638;-82
2021/12/06 06:10:35;;;;;;;85.32;30.27;;;5.40;84.30;;;;;;5026638;28;20186;-82
2021/12/06 06:13:03;;;;;;;78.97;28.83;;;5.40;84.30;;;;;;5026480;28;20217;-82
2021/12/06 06:15:29;;;;;;;63.30;26.25;;;5.50;84.50;;;;;;5020413;28;20198;-82
2021/12/06 06:17:57;;;;;;;74.00;28.70;;;5.30;83.70;;;;;;5021144;28;20297;-82
2021/12/06 06:20:24;;;;;;;72.82;27.30;;;5.10;84.20;;;;;;5026262;28;20204;-82
2021/12/06 06:22:50;;;;;;;60.63;26.52;;;5.20;84.20;;;;;;5019805;28;20256;-81
2021/12/06 06:25:16;;;;;;;75.83;26.03;;;5.10;84.20;;;;;;5018204;28;20202;-81
2021/12/06 06:27:43;;;;;;;86.30;28.65;;;5.10;84.30;;;;;;5027759;28;20262;-82
2021/12/06 06:30:10;;;;;;;66.10;25.10;;;5.30;84.40;;;;;;5021524;28;20187;-82
2021/12/06 06:32:35;;;;;;;71.03;25.83;;;5.30;84.20;;;;;;5026930;28;20185;-82
2021/12/06 06:35:02;;;;;;;76.47;28.20;;;5.10;84.00;;;;;;5018455;28;20621;-82
2021/12/06 06:37:28;;;;;;;64.00;24.35;;;5.20;84.00;;;;;;5020078;28;20213;-82
2021/12/06 06:39:54;;;;;;;94.30;27.80;;;5.10;84.20;;;;;;5020609;28;20187;-83
2021/12/06 06:42:23;;;;;;;72.07;23.53;;;5.20;84.70;;;;;;5021660;28;20248;-83
2021/12/06 06:44:50;;;;;;;64.50;24.45;;;5.10;84.90;;;;;;5024627;28;20229;-82
2021/12/06 06:47:17;;;;;;;83.03;27.05;;;5.30;84.90;;;;;;5019134;28;20318;-81
2021/12/06 06:49:42;;;;;;;93.35;26.65;;;5.30;84.50;;;;;;5020107;28;20292;-82
2021/12/06 06:52:08;;;;;;;56.73;23.90;;;5.40;84.20;;;;;;5025356;28;20211;-81
2021/12/06 06:54:34;;;;;;;71.70;25.60;;;5.20;83.80;;;;;;5018146;28;20198;-81
2021/12/06 06:57:00;;;;;;;76.90;26.33;;;5.20;84.10;;;;;;5028688;28;20437;-82
2021/12/06 06:59:26;;;;;;;65.20;25.52;;;5.10;84.30;;;;;;5025636;28;20197;-81
2021/12/06 07:01:52;;;;;;;58.47;23.17;;;4.90;84.20;;;;;;5018467;28;20642;-81
2021/12/06 07:04:18;;;;;;;62.63;24.13;;;4.60;84.60;;;;;;5016529;28;20210;-82
2021/12/06 07:06:44;;;;;;;67.27;23.83;;;4.50;85.30;;;;;;5025439;28;20194;-81
2021/12/06 07:09:10;;;;;;;57.85;23.13;;;4.40;85.70;;;;;;5017202;28;20422;-81
2021/12/06 07:11:36;;;;;;;69.60;26.52;;;4.20;86.40;;;;;;5025417;28;20246;-82
2021/12/06 07:14:03;;;;;;;72.22;23.13;;;4.10;87.00;;;;;;5024132;28;20675;-81
2021/12/06 07:16:29;;;;;;;65.25;22.00;;;4.00;87.40;;;;;;5018565;28;20191;-82
2021/12/06 07:18:57;;;;;;;53.03;21.70;;;4.00;87.80;;;;;;5005706;28;20503;-81
2021/12/06 07:21:23;;;;;;;58.47;22.10;;;4.00;88.10;;;;;;5035133;28;20773;-81
2021/12/06 07:23:50;;;;;;;63.53;23.13;;;4.00;88.20;;;;;;5026024;28;20234;-82
2021/12/06 07:26:19;;;;;;;50.47;20.60;;;3.90;88.40;;;;;;5019937;28;20187;-80
2021/12/06 07:28:48;;;;;;;56.45;22.88;;;3.90;88.60;;;;;;5017023;28;20186;-81
2021/12/06 07:31:14;;;;;;;52.17;22.42;;;3.80;88.80;;;;;;5017005;28;20312;-80
2021/12/06 07:33:45;;;;;;;42.85;20.40;;;3.70;89.00;;;;;;5024716;28;20194;-80
2021/12/06 07:36:11;;;;;;;47.60;21.65;;;3.70;89.10;;;;;;5031038;28;20187;-81
2021/12/06 07:38:38;;;;;;;55.90;21.45;;;3.60;89.10;;;;;;5018478;28;20175;-81
2021/12/06 07:41:08;;;;;;;57.25;19.88;;;3.60;89.10;;;;;;5020261;28;20190;-82
2021/12/06 07:43:35;;;;;;;65.35;23.38;;;3.90;89.10;;;;;;5018609;28;20210;-82
2021/12/06 07:46:01;;;;;;;48.08;21.40;;;3.90;88.80;;;;;;5020885;28;20173;-81
2021/12/06 07:48:27;;;;;;;52.05;22.55;;;4.00;88.50;;;;;;5038122;28;20201;-81
2021/12/06 07:50:53;;;;;;;71.27;22.30;;;4.10;88.40;;;;;;5017593;28;20187;-79
2021/12/06 07:53:19;;;;;;;126.43;21.93;;;3.90;88.20;;;;;;5015349;28;20190;-80
2021/12/06 07:55:44;;;;;;;51.83;20.87;;;3.90;88.40;;;;;;5016503;28;20461;-81
2021/12/06 07:58:10;;;;;;;63.67;22.37;;;4.00;88.50;;;;;;5020279;28;20782;-82
2021/12/06 08:00:44;;;;;;;58.63;21.10;;;4.00;88.60;;;;;;5016675;28;20426;-81
2021/12/06 08:03:11;;;;;;;63.67;23.38;;;4.00;88.70;;;;;;5020062;28;20291;-81
2021/12/06 08:05:40;;;;;;;75.00;23.90;;;3.80;88.50;;;;;;5028459;28;20654;-80
2021/12/06 08:08:25;;;;;;;74.18;24.50;;;3.80;88.80;;;;;;5027547;28;20195;-81
2021/12/06 08:10:54;;;;;;;68.85;23.90;;;3.80;89.20;;;;;;5027648;28;20665;-80
2021/12/06 08:13:27;;;;;;;70.80;24.40;;;3.90;89.50;;;;;;5019715;28;20714;-80
2021/12/06 08:15:56;;;;;;;74.00;24.38;;;4.10;89.70;;;;;;5018580;28;20229;-81
2021/12/06 08:18:22;;;;;;;73.30;25.73;;;4.30;89.80;;;;;;5016039;28;20218;-81
2021/12/06 08:20:49;;;;;;;69.27;26.97;;;4.40;89.60;;;;;;5015713;28;20194;-80
2021/12/06 08:23:15;;;;;;;74.03;27.88;;;4.60;89.50;;;;;;5015197;28;20825;-83
2021/12/06 08:25:41;;;;;;;64.47;24.95;;;4.70;89.30;;;;;;5017214;28;20241;-80
2021/12/06 08:28:07;;;;;;;68.95;29.08;;;4.80;89.10;;;;;;5025378;28;20175;-83
2021/12/06 08:30:34;;;;;;;64.43;26.53;;;4.80;88.90;;;;;;5018765;28;20183;-81
2021/12/06 08:33:02;;;;;;;70.80;27.55;;;4.80;88.80;;;;;;5019329;28;20433;-79
2021/12/06 08:35:29;;;;;;;70.95;27.50;;;4.80;88.70;;;;;;5020848;28;20762;-80
2021/12/06 08:37:58;;;;;;;63.45;27.20;;;4.70;88.50;;;;;;5030787;28;20228;-81
2021/12/06 08:40:25;;;;;;;56.45;25.48;;;5.00;88.30;;;;;;5034339;28;20182;-80
2021/12/06 08:42:51;;;;;;;58.25;25.63;;;5.30;87.40;;;;;;5024081;28;20178;-81
2021/12/06 08:45:17;;;;;;;62.03;24.00;;;5.10;86.60;;;;;;5028554;28;20231;-80
2021/12/06 08:47:42;;;;;;;67.30;25.57;;;5.10;85.90;;;;;;5030136;28;20444;-80
2021/12/06 08:50:15;;;;;;;60.00;23.60;;;5.10;85.00;;;;;;5030276;28;20426;-80
2021/12/06 08:52:41;;;;;;;67.57;25.60;;;4.90;84.20;;;;;;5026712;28;20449;-80
2021/12/06 08:55:09;;;;;;;51.83;21.63;;;4.60;84.30;;;;;;5035471;28;20633;-80
2021/12/06 08:57:35;;;;;;;49.03;21.45;;;4.50;84.80;;;;;;5035770;28;20195;-80
2021/12/06 09:00:04;;;;;;;49.75;22.38;;;4.30;85.30;;;;;;5018919;28;20183;-82
2021/12/06 09:02:29;;;;;;;51.42;23.35;;;4.30;85.60;;;;;;5010332;28;20175;-80
2021/12/06 09:04:56;;;;;;;65.10;23.60;;;4.40;85.70;;;;;;5019020;28;20297;-80
2021/12/06 09:07:24;;;;;;;59.80;23.73;;;4.30;85.80;;;;;;5025730;28;20178;-79
2021/12/06 09:09:50;;;;;;;51.92;23.15;;;4.50;86.10;;;;;;5024640;28;20282;-80
2021/12/06 09:12:24;;;;;;;49.95;21.98;;;4.30;86.00;;;;;;5026374;28;20241;-80
2021/12/06 09:14:51;;;;;;;47.95;22.10;;;4.40;86.40;;;;;;5037487;28;20221;-81
2021/12/06 09:17:17;;;;;;;48.25;23.27;;;4.50;86.70;;;;;;5026146;28;20246;-81
2021/12/06 09:19:43;;;;;;;54.50;24.50;;;4.50;86.70;;;;;;5019253;28;20228;-81
2021/12/06 09:22:09;;;;;;;53.90;22.52;;;4.60;86.70;;;;;;5019043;28;20536;-81
2021/12/06 09:24:39;;;;;;;60.10;23.52;;;4.60;86.40;;;;;;5034797;28;20236;-81
2021/12/06 09:27:06;;;;;;;61.42;25.98;;;4.20;86.20;;;;;;5023867;28;20190;-81
2021/12/06 09:29:36;;;;;;;61.72;24.00;;;4.20;86.70;;;;;;5016977;28;20213;-82
2021/12/06 09:32:07;;;;;;;57.20;23.13;;;4.30;87.00;;;;;;5022731;28;20207;-80
2021/12/06 09:34:37;;;;;;;59.45;24.10;;;4.30;86.90;;;;;;5016629;28;20214;-81
2021/12/06 09:37:03;;;;;;;55.22;22.75;;;4.10;86.70;;;;;;5029799;28;20184;-80
2021/12/06 09:39:29;;;;;;;48.95;22.73;;;4.00;87.30;;;;;;5023335;28;20681;-81
2021/12/06 09:41:55;;;;;;;54.85;24.65;;;4.00;87.80;;;;;;5022002;28;20218;-81
2021/12/06 09:44:21;;;;;;;60.53;23.87;;;4.00;88.20;;;;;;5020551;28;20240;-82
2021/12/06 09:46:47;;;;;;;50.97;23.50;;;4.00;88.30;;;;;;5015944;28;20437;-80
2021/12/06 09:49:17;;;;;;;49.53;23.17;;;3.80;89.30;;;;;;5019374;28;20764;-81
2021/12/06 09:51:57;;;;;;;55.22;23.00;;;3.80;89.00;;;;;;5036990;28;20178;-81
2021/12/06 09:54:25;;;;;;;58.00;23.15;;;3.90;89.20;;;;;;5035821;28;20200;-81
2021/12/06 09:56:52;;;;;;;37.83;19.80;;;3.90;88.90;;;;;;5020839;28;20186;-80
2021/12/06 09:59:23;;;;;;;55.25;22.70;;;4.00;88.70;;;;;;5023155;28;20183;-80
2021/12/06 10:01:56;;;;;;;55.47;22.15;;;4.20;88.60;;;;;;5027908;28;20289;-81
2021/12/06 10:04:25;;;;;;;38.85;19.95;;;4.10;88.10;;;;;;5028616;28;20210;-81
2021/12/06 10:06:51;;;;;;;51.38;20.35;;;4.00;88.00;;;;;;5036143;28;20193;-82
2021/12/06 10:09:19;;;;;;;51.25;21.85;;;4.00;88.10;;;;;;5037343;28;20301;-81
2021/12/06 10:11:46;;;;;;;45.72;19.58;;;4.10;88.20;;;;;;5041432;28;20653;-81
2021/12/06 10:14:13;;;;;;;38.13;18.95;;;4.20;87.90;;;;;;5042926;28;20197;-80
2021/12/06 10:16:39;;;;;;;42.30;21.65;;;4.40;87.50;;;;;;5025929;28;20231;-81
2021/12/06 10:19:06;;;;;;;36.83;19.70;;;4.20;87.00;;;;;;5026165;28;20191;-82
2021/12/06 10:21:33;;;;;;;45.10;20.30;;;4.30;86.90;;;;;;5041746;28;20197;-80
2021/12/06 10:23:59;;;;;;;35.05;19.58;;;4.30;86.50;;;;;;5020972;28;20206;-80
2021/12/06 10:26:28;;;;;;;40.00;18.55;;;4.40;86.40;;;;;;5029642;28;20182;-81
2021/12/06 10:28:57;;;;;;;35.22;17.40;;;4.50;86.10;;;;;;5042575;28;20250;-81
2021/12/06 10:31:24;;;;;;;42.28;18.88;;;4.50;85.70;;;;;;5051584;28;20182;-81
2021/12/06 10:33:51;;;;;;;37.40;17.55;;;4.40;85.40;;;;;;5046843;28;20186;-80
2021/12/06 10:36:18;;;;;;;32.22;18.70;;;4.50;85.70;;;;;;5029234;28;20217;-81
2021/12/06 10:38:49;;;;;;;36.88;19.17;;;4.40;85.20;;;;;;5029608;28;20217;-81
2021/12/06 10:41:18;;;;;;;35.50;19.10;;;4.20;85.10;;;;;;5032880;28;20201;-81
2021/12/06 10:43:54;;;;;;;37.08;19.48;;;4.40;85.30;;;;;;5024123;28;20186;-81
2021/12/06 10:46:22;;;;;;;35.25;17.38;;;4.60;85.30;;;;;;5025905;28;20182;-82
2021/12/06 10:48:48;;;;;;;37.63;18.33;;;4.70;85.10;;;;;;5019094;28;20231;-81
2021/12/06 10:51:17;;;;;;;33.13;18.52;;;4.90;85.00;;;;;;5030420;28;20179;-81
2021/12/06 10:54:07;;;;;;;36.95;18.60;;;4.60;84.50;;;;;;5035077;28;20182;-82
2021/12/06 10:56:43;;;;;;;40.03;19.05;;;4.50;84.30;;;;;;5030441;28;20206;-82
2021/12/06 10:59:30;;;;;;;40.13;18.50;;;4.60;84.80;;;;;;5031689;28;20181;-81
2021/12/06 11:02:09;;;;;;;38.00;17.90;;;4.70;84.50;;;;;;5023805;28;20185;-82
2021/12/06 11:04:36;;;;;;;38.30;18.40;;;4.80;84.20;;;;;;5033299;28;20214;-81
2021/12/06 11:07:05;;;;;;;38.67;17.67;;;4.80;84.10;;;;;;5034660;28;20186;-83
2021/12/06 11:09:34;;;;;;;35.30;18.20;;;4.50;84.00;;;;;;5052758;28;20614;-82
2021/12/06 11:12:03;;;;;;;30.30;16.83;;;4.50;84.60;;;;;;5036425;28;20187;-80
2021/12/06 11:14:33;;;;;;;34.85;15.05;;;4.50;85.20;;;;;;5031736;28;20213;-81
2021/12/06 11:17:05;;;;;;;32.63;17.10;;;4.30;84.90;;;;;;5031359;28;20653;-79
2021/12/06 11:19:32;;;;;;;32.90;16.70;;;4.30;85.20;;;;;;5028539;28;20190;-79
2021/12/06 11:21:59;;;;;;;29.83;15.40;;;4.30;85.30;;;;;;5031967;28;20682;-79
2021/12/06 11:24:41;;;;;;;36.65;16.42;;;4.30;85.60;;;;;;5016631;28;20226;-80
2021/12/06 11:27:13;;;;;;;36.28;16.75;;;4.50;86.00;;;;;;5031124;28;20667;-80
2021/12/06 11:29:41;;;;;;;41.42;19.98;;;4.70;85.80;;;;;;5037760;28;20165;-79
2021/12/06 11:32:31;;;;;;;34.72;16.98;;;4.90;85.40;;;;;;5027770;28;20265;-81
2021/12/06 11:35:16;;;;;;;35.38;18.08;;;4.90;84.50;;;;;;5023354;28;20218;-80
2021/12/06 11:37:43;;;;;;;34.40;16.38;;;4.90;84.10;;;;;;5032946;28;20182;-80
2021/12/06 11:40:14;;;;;;;35.13;17.13;;;4.80;83.40;;;;;;5035320;28;20210;-81
2021/12/06 11:43:17;;;;;;;38.47;17.10;;;4.70;83.70;;;;;;5037797;28;20178;-81
2021/12/06 11:45:57;;;;;;;40.45;15.32;;;4.60;84.10;;;;;;5035197;28;20268;-81
2021/12/06 11:48:30;;;;;;;28.92;15.85;;;4.70;84.70;;;;;;5028579;28;20546;-80
2021/12/06 11:51:05;;;;;;;40.95;19.65;;;4.90;84.70;;;;;;5025553;28;20232;-80
2021/12/06 11:53:41;;;;;;;34.28;16.63;;;4.90;84.30;;;;;;5028527;28;20177;-80
2021/12/06 11:56:20;;;;;;;38.78;18.33;;;5.00;84.10;;;;;;5024362;28;20178;-80
2021/12/06 11:58:56;;;;;;;32.85;16.98;;;5.30;83.70;;;;;;5015056;28;20224;-80
2021/12/06 12:01:34;;;;;;;36.03;16.27;;;5.30;82.80;;;;;;4998289;28;20197;-79
2021/12/06 12:04:04;;;;;;;34.20;16.88;;;5.40;82.20;;;;;;5035150;28;20217;-79
2021/12/06 12:06:33;;;;;;;34.30;15.60;;;5.50;82.60;;;;;;5018961;28;20185;-81
2021/12/06 12:09:34;;;;;;;35.80;16.13;;;5.60;81.60;;;;;;5033307;28;20185;-82
2021/12/06 12:12:06;;;;;;;33.78;17.80;;;5.70;81.80;;;;;;5035791;28;20221;-81
2021/12/06 12:14:34;;;;;;;29.92;15.68;;;5.70;81.20;;;;;;5026027;28;20207;-81
2021/12/06 12:17:03;;;;;;;33.78;17.15;;;5.60;80.70;;;;;;5024443;28;20259;-81
2021/12/06 12:19:29;;;;;;;36.92;17.17;;;5.50;80.50;;;;;;5028327;28;20181;-81
2021/12/06 12:21:55;;;;;;;28.83;15.10;;;5.50;81.00;;;;;;5026477;28;20281;-80
2021/12/06 12:24:22;;;;;;;35.13;18.40;;;5.40;80.70;;;;;;5028745;28;20225;-81
2021/12/06 12:26:57;;;;;;;33.63;18.17;;;5.60;81.10;;;;;;5033006;28;20180;-80
2021/12/06 12:29:27;;;;;;;36.47;17.45;;;5.80;81.20;;;;;;5034814;28;20181;-83
2021/12/06 12:31:57;;;;;;;28.90;17.00;;;5.80;80.90;;;;;;5033221;28;20181;-81
2021/12/06 12:34:28;;;;;;;32.15;16.90;;;5.90;80.90;;;;;;5037872;28;20700;-82
2021/12/06 12:36:54;;;;;;;27.38;15.35;;;6.00;80.80;;;;;;5037871;28;20198;-83
2021/12/06 12:39:22;;;;;;;32.00;15.00;;;6.00;80.60;;;;;;5032847;28;20182;-81
2021/12/06 12:41:52;;;;;;;36.78;16.25;;;6.00;80.60;;;;;;5023653;28;20200;-81
2021/12/06 12:44:18;;;;;;;34.28;15.70;;;6.10;80.60;;;;;;5034152;28;20222;-81
2021/12/06 12:46:46;;;;;;;31.53;15.33;;;6.30;80.50;;;;;;5020005;28;20166;-83
2021/12/06 12:49:21;;;;;;;30.38;15.30;;;6.40;79.90;;;;;;5037140;28;20437;-81
2021/12/06 12:51:57;;;;;;;33.75;15.90;;;6.50;79.30;;;;;;5029408;28;20178;-84
2021/12/06 12:54:28;;;;;;;31.85;17.50;;;6.40;78.90;;;;;;5017995;28;20198;-82
2021/12/06 12:57:12;;;;;;;32.33;14.90;;;6.30;79.60;;;;;;5020055;28;20174;-82